Time;durP1;ratioP1;P1;durP2;ratioP2;P2;SDS_P1;SDS_P2;PMS_P1;PMS_P2;Temp;Humidity;BMP_temperature;BMP_pressure;BME280_temperature;BME280_humidity;BME280_pressure;Samples;Min_cycle;Max_cycle;Signal;HPM_P1;HPM_P2
2022/06/22 00:00:20;;;;;;;10.13;6.47;;;13.90;99.90;;;;;;5005127;28;20100;-72
2022/06/22 00:02:50;;;;;;;8.82;6.20;;;13.90;99.90;;;;;;5002982;28;20073;-72
2022/06/22 00:05:37;;;;;;;10.73;6.80;;;13.90;99.90;;;;;;5003973;28;20111;-72
2022/06/22 00:08:06;;;;;;;6.95;5.57;;;13.80;99.90;;;;;;5006271;28;20041;-72
2022/06/22 00:10:50;;;;;;;8.65;5.97;;;13.80;99.90;;;;;;5005795;28;20053;-72
2022/06/22 00:13:26;;;;;;;11.35;5.70;;;13.70;99.90;;;;;;5022630;28;20042;-72
2022/06/22 00:15:56;;;;;;;12.80;6.97;;;13.70;99.90;;;;;;5003237;28;20048;-72
2022/06/22 00:18:40;;;;;;;10.70;7.07;;;13.60;99.90;;;;;;5005667;28;20038;-72
2022/06/22 00:21:26;;;;;;;12.45;7.40;;;13.60;99.90;;;;;;5003580;28;20041;-72
2022/06/22 00:23:55;;;;;;;11.65;7.38;;;13.50;99.90;;;;;;5015007;28;20042;-72
2022/06/22 00:26:24;;;;;;;9.95;7.15;;;13.50;99.90;;;;;;4990413;28;20088;-72
2022/06/22 00:28:58;;;;;;;9.43;6.40;;;13.50;99.90;;;;;;5004036;28;20096;-72
2022/06/22 00:31:42;;;;;;;3.92;1.52;;;13.40;99.90;;;;;;5003970;28;20045;-72
2022/06/22 00:34:11;;;;;;;2.75;1.80;;;13.30;99.90;;;;;;5024005;28;20136;-72
2022/06/22 00:37:16;;;;;;;2.67;1.90;;;13.10;99.90;;;;;;5008927;28;20049;-72
2022/06/22 00:39:48;;;;;;;4.35;3.22;;;13.00;99.90;;;;;;5003994;28;20039;-73
2022/06/22 00:42:40;;;;;;;5.88;4.05;;;12.90;99.90;;;;;;5019231;28;20049;-72
2022/06/22 00:45:08;;;;;;;6.78;4.45;;;12.80;99.90;;;;;;5009218;28;20181;-73
2022/06/22 00:47:42;;;;;;;11.68;5.75;;;12.80;99.90;;;;;;5013226;28;20041;-72
2022/06/22 00:50:15;;;;;;;4.25;3.00;;;12.80;99.90;;;;;;5003490;28;20209;-73
2022/06/22 00:52:53;;;;;;;3.38;2.10;;;12.80;99.90;;;;;;5000838;28;20042;-72
2022/06/22 00:55:36;;;;;;;3.10;2.30;;;12.70;99.90;;;;;;5003285;28;20076;-73
2022/06/22 00:58:08;;;;;;;6.53;5.05;;;12.70;99.90;;;;;;5002464;28;20045;-72
2022/06/22 01:00:39;;;;;;;8.30;4.90;;;12.60;99.90;;;;;;5001744;28;20038;-73
2022/06/22 01:03:17;;;;;;;8.40;7.20;;;12.60;99.90;;;;;;5002773;28;20104;-72
2022/06/22 01:05:55;;;;;;;11.25;7.30;;;12.50;99.90;;;;;;5003773;28;20092;-72
2022/06/22 01:08:29;;;;;;;11.40;8.18;;;12.50;99.90;;;;;;5004167;28;20041;-72
2022/06/22 01:11:02;;;;;;;8.20;6.45;;;12.50;99.90;;;;;;5002429;28;20045;-72
2022/06/22 01:13:42;;;;;;;;;;;12.50;99.90;;;;;;5004018;28;20126;-73
2022/06/22 01:16:27;;;;;;;8.45;6.00;;;12.50;99.90;;;;;;5004937;28;19936;-73
2022/06/22 01:18:58;;;;;;;10.38;8.40;;;12.40;99.90;;;;;;5000138;28;20081;-73
2022/06/22 01:21:34;;;;;;;10.02;7.35;;;12.40;99.90;;;;;;5000047;28;20058;-73
2022/06/22 01:24:21;;;;;;;11.13;8.73;;;12.30;99.90;;;;;;5002315;28;20385;-72
2022/06/22 01:27:05;;;;;;;6.88;5.57;;;12.30;99.90;;;;;;5004035;28;20046;-72
2022/06/22 01:29:31;;;;;;;7.05;6.20;;;12.20;99.90;;;;;;5004333;28;20052;-72
2022/06/22 01:32:04;;;;;;;10.65;8.40;;;12.10;99.90;;;;;;5003269;28;20041;-73
2022/06/22 01:34:40;;;;;;;;;;;12.10;99.90;;;;;;4998390;28;20484;-72
2022/06/22 01:37:12;;;;;;;10.15;7.40;;;12.00;99.90;;;;;;5001883;28;20291;-72
2022/06/22 01:39:38;;;;;;;;;;;12.00;99.90;;;;;;5003808;28;20388;-71
2022/06/22 01:42:33;;;;;;;8.45;7.43;;;12.10;99.90;;;;;;5004641;28;19917;-72
2022/06/22 01:45:15;;;;;;;12.00;8.48;;;12.00;99.90;;;;;;5004935;28;20381;-72
2022/06/22 01:47:50;;;;;;;8.73;7.82;;;12.00;99.90;;;;;;5003571;28;20045;-72
2022/06/22 01:50:26;;;;;;;10.80;7.60;;;12.00;99.90;;;;;;5003034;28;20039;-72
2022/06/22 01:53:03;;;;;;;11.85;8.48;;;12.00;99.90;;;;;;4999813;28;20037;-72
2022/06/22 01:55:52;;;;;;;9.25;8.25;;;12.00;99.90;;;;;;5003008;28;20613;-72
2022/06/22 01:58:17;;;;;;;10.02;7.85;;;12.00;99.90;;;;;;5004217;28;20065;-71
2022/06/22 02:00:47;;;;;;;8.27;7.45;;;11.90;99.90;;;;;;5001778;28;20558;-72
2022/06/22 02:03:24;;;;;;;8.10;7.30;;;11.90;99.90;;;;;;5004620;28;20037;-72
2022/06/22 02:07:44;;;;;;;12.55;8.25;;;11.90;99.90;;;;;;5004284;28;20077;-71
2022/06/22 02:08:51;;;;;;;9.30;8.40;;;11.90;99.90;;;;;;5002539;28;20452;-71
2022/06/22 02:11:22;;;;;;;9.55;8.55;;;11.80;99.90;;;;;;5002611;28;20048;-71
2022/06/22 02:13:59;;;;;;;11.23;8.82;;;11.80;99.90;;;;;;5002880;28;20042;-72
2022/06/22 02:16:35;;;;;;;10.10;9.10;;;11.80;99.90;;;;;;5000891;28;20476;-72
2022/06/22 02:19:00;;;;;;;9.68;8.65;;;11.70;99.90;;;;;;5003264;28;20630;-72
2022/06/22 02:21:41;;;;;;;10.90;8.75;;;11.70;99.90;;;;;;5002460;28;20037;-72
2022/06/22 02:24:29;;;;;;;10.88;8.20;;;11.70;99.90;;;;;;5003216;28;20723;-72
2022/06/22 02:27:00;;;;;;;6.70;5.63;;;11.60;99.90;;;;;;5007912;28;20029;-72
2022/06/22 02:29:30;;;;;;;8.52;7.28;;;11.60;99.90;;;;;;5007271;28;20668;-72
2022/06/22 02:32:01;;;;;;;7.50;6.63;;;11.60;99.90;;;;;;5004368;28;20125;-72
2022/06/22 02:34:28;;;;;;;10.90;8.68;;;11.50;99.90;;;;;;4997760;28;20054;-72
2022/06/22 02:36:54;;;;;;;10.15;9.13;;;11.50;99.90;;;;;;5001566;28;20049;-72
2022/06/22 02:39:24;;;;;;;11.32;9.55;;;11.50;99.90;;;;;;5000389;28;20046;-72
2022/06/22 02:44:41;;;;;;;11.57;8.98;;;11.50;99.90;;;;;;4996629;28;20080;-72
2022/06/22 02:47:19;;;;;;;9.02;8.02;;;11.40;99.90;;;;;;4998276;28;20038;-72
2022/06/22 02:49:52;;;;;;;11.63;8.57;;;11.40;99.90;;;;;;4996568;28;20038;-72
2022/06/22 02:52:20;;;;;;;8.88;8.07;;;11.30;99.90;;;;;;4995170;28;20052;-72
2022/06/22 02:54:53;;;;;;;8.25;7.55;;;11.30;99.90;;;;;;4997148;28;20082;-72
2022/06/22 02:57:39;;;;;;;;;;;11.20;99.90;;;;;;4996390;28;20065;-72
2022/06/22 03:00:05;;;;;;;;;;;11.20;99.90;;;;;;5001515;28;20399;-72
2022/06/22 03:02:31;;;;;;;;;;;11.20;99.90;;;;;;4998938;28;20055;-72
2022/06/22 03:04:58;;;;;;;;;;;11.10;99.90;;;;;;4994518;28;20405;-72
2022/06/22 03:07:24;;;;;;;;;;;11.00;99.90;;;;;;4998098;28;19917;-72
2022/06/22 03:09:51;;;;;;;;;;;11.00;99.90;;;;;;5001174;28;20020;-72
2022/06/22 03:12:17;;;;;;;;;;;11.00;99.90;;;;;;5003089;28;20390;-72
2022/06/22 03:14:42;;;;;;;;;;;10.90;99.90;;;;;;4982414;28;19960;-72
2022/06/22 03:17:12;;;;;;;;;;;10.90;99.90;;;;;;4984420;28;19964;-72
2022/06/22 03:20:01;;;;;;;;;;;10.80;99.90;;;;;;5000505;28;19931;-72
2022/06/22 03:22:35;;;;;;;;;;;10.80;99.90;;;;;;5001901;28;19928;-72
2022/06/22 03:25:12;;;;;;;;;;;10.80;99.90;;;;;;5000483;28;21226;-72
2022/06/22 03:27:41;;;;;;;;;;;10.70;99.90;;;;;;5001334;28;19932;-72
2022/06/22 03:30:33;;;;;;;;;;;10.70;99.90;;;;;;5001154;28;19936;-72
2022/06/22 03:33:03;;;;;;;;;;;10.70;99.90;;;;;;5014871;28;20440;-72
2022/06/22 03:35:33;;;;;;;;;;;10.60;99.90;;;;;;5006949;28;19925;-72
2022/06/22 03:38:01;;;;;;;;;;;10.60;99.90;;;;;;5006816;28;20004;-72
2022/06/22 03:40:40;;;;;;;;;;;10.60;99.90;;;;;;5004187;28;20383;-72
2022/06/22 03:43:09;;;;;;;;;;;10.60;99.90;;;;;;5023386;28;19917;-72
2022/06/22 03:45:37;;;;;;;;;;;10.60;99.90;;;;;;5005625;28;19921;-72
2022/06/22 03:48:10;;;;;;;;;;;10.60;99.90;;;;;;5006437;28;20434;-72
2022/06/22 03:50:53;;;;;;;;;;;10.60;99.90;;;;;;5007427;28;20384;-72
2022/06/22 03:53:25;;;;;;;;;;;10.60;99.90;;;;;;5006877;28;20375;-72
2022/06/22 03:55:54;;;;;;;;;;;10.70;99.90;;;;;;5019626;28;19917;-72
2022/06/22 03:58:20;;;;;;;;;;;10.70;99.90;;;;;;4992154;28;20013;-72
2022/06/22 04:00:46;;;;;;;;;;;10.70;99.90;;;;;;5003151;28;20371;-72
2022/06/22 04:03:13;;;;;;;;;;;10.70;99.90;;;;;;5004272;28;19932;-72
2022/06/22 04:05:53;;;;;;;;;;;10.80;99.90;;;;;;5005658;28;20012;-72
2022/06/22 04:08:22;;;;;;;;;;;10.80;99.90;;;;;;5003306;28;20299;-72
2022/06/22 04:11:07;;;;;;;;;;;10.90;99.90;;;;;;5005639;28;20321;-72
2022/06/22 04:13:44;;;;;;;;;;;10.90;99.90;;;;;;5004521;28;19917;-72
2022/06/22 04:16:15;;;;;;;;;;;11.00;99.90;;;;;;5005961;28;19940;-72
2022/06/22 04:18:55;;;;;;;;;;;11.00;99.90;;;;;;5004308;28;20643;-72
2022/06/22 04:21:23;;;;;;;;;;;11.10;99.90;;;;;;5005296;28;20280;-72
2022/06/22 04:23:51;;;;;;;;;;;11.10;99.90;;;;;;5003977;28;19961;-72
2022/06/22 04:26:28;;;;;;;;;;;11.10;99.90;;;;;;4990009;28;19925;-72
2022/06/22 04:28:57;;;;;;;;;;;11.10;99.90;;;;;;5019196;28;19918;-72
2022/06/22 04:31:26;;;;;;;;;;;11.20;99.90;;;;;;5004005;28;19917;-72
2022/06/22 04:33:53;;;;;;;;;;;11.20;99.90;;;;;;4985947;28;19932;-72
2022/06/22 04:36:26;;;;;;;;;;;11.20;99.90;;;;;;5005066;28;19948;-72
2022/06/22 04:38:53;;;;;;;;;;;11.30;99.90;;;;;;5005728;28;19932;-73
2022/06/22 04:41:19;;;;;;;;;;;11.30;99.90;;;;;;5004641;28;19917;-72
2022/06/22 04:43:46;;;;;;;;;;;11.40;99.90;;;;;;5004289;28;19922;-72
2022/06/22 04:46:15;;;;;;;;;;;11.40;99.90;;;;;;5002506;28;19925;-72
2022/06/22 04:48:42;;;;;;;;;;;11.50;99.90;;;;;;5006248;28;19921;-72
2022/06/22 04:51:13;;;;;;;;;;;11.50;99.90;;;;;;5006321;28;19925;-72
2022/06/22 04:53:38;;;;;;;;;;;11.60;99.90;;;;;;5003863;28;19925;-73
2022/06/22 04:56:06;;;;;;;;;;;11.70;99.90;;;;;;5003410;28;19933;-71
2022/06/22 04:58:34;;;;;;;;;;;11.70;99.90;;;;;;5005584;28;19917;-72
2022/06/22 05:01:00;;;;;;;;;;;11.80;99.90;;;;;;5003397;28;19921;-72
2022/06/22 05:03:27;;;;;;;;;;;11.90;99.90;;;;;;5004422;28;20004;-72
2022/06/22 05:05:53;;;;;;;;;;;11.90;99.90;;;;;;5004445;28;19922;-72
2022/06/22 05:08:32;;;;;;;;;;;12.00;99.90;;;;;;5003240;28;19921;-72
2022/06/22 05:11:05;;;;;;;;;;;12.00;99.90;;;;;;5004956;28;20024;-72
2022/06/22 05:13:38;;;;;;;;;;;12.10;99.90;;;;;;4990712;28;19917;-72
2022/06/22 05:16:04;;;;;;;;;;;12.20;99.90;;;;;;5005579;28;19936;-72
2022/06/22 05:18:32;;;;;;;;;;;12.20;99.90;;;;;;5005599;28;20008;-72
2022/06/22 05:21:00;;;;;;;;;;;12.30;99.90;;;;;;5005182;28;19921;-72
2022/06/22 05:23:27;;;;;;;;;;;12.30;99.90;;;;;;5004524;28;19921;-71
2022/06/22 05:25:54;;;;;;;;;;;12.40;99.90;;;;;;5005437;28;19925;-72
2022/06/22 05:28:35;;;;;;;;;;;12.40;99.90;;;;;;5004573;28;19917;-72
2022/06/22 05:31:06;;;;;;;;;;;12.50;99.90;;;;;;5000362;28;19967;-72
2022/06/22 05:33:33;;;;;;;;;;;12.60;99.90;;;;;;5004715;28;19917;-72
2022/06/22 05:36:03;;;;;;;;;;;12.70;99.90;;;;;;5005838;28;20438;-72
2022/06/22 05:38:28;;;;;;;;;;;12.70;99.90;;;;;;5002120;28;19956;-72
2022/06/22 05:40:54;;;;;;;;;;;12.90;99.90;;;;;;5003261;28;19975;-71
2022/06/22 05:43:20;;;;;;;;;;;12.90;99.90;;;;;;5004126;28;19964;-72
2022/06/22 05:45:48;;;;;;;;;;;13.00;99.90;;;;;;4999262;28;19932;-72
2022/06/22 05:48:15;;;;;;;;;;;13.10;99.90;;;;;;5009548;28;19925;-72
2022/06/22 05:50:49;;;;;;;;;;;13.30;99.90;;;;;;5002848;28;19969;-72
2022/06/22 05:53:17;;;;;;;;;;;13.30;99.90;;;;;;4999271;28;20063;-72
2022/06/22 05:55:49;;;;;;;;;;;13.40;99.90;;;;;;5002051;28;19925;-72
2022/06/22 05:58:33;;;;;;;;;;;13.60;99.90;;;;;;4983637;28;19924;-72
2022/06/22 06:01:01;;;;;;;;;;;13.70;99.90;;;;;;4998340;28;19922;-72
2022/06/22 06:03:33;;;;;;;;;;;13.80;99.90;;;;;;4999543;28;20403;-72
2022/06/22 06:06:16;;;;;;;;;;;13.90;99.90;;;;;;5000600;28;19925;-72
2022/06/22 06:08:44;;;;;;;;;;;14.00;99.90;;;;;;4997534;28;20020;-72
2022/06/22 06:11:19;;;;;;;;;;;14.20;99.90;;;;;;5005235;28;19918;-72
2022/06/22 06:13:47;;;;;;;;;;;14.30;99.90;;;;;;5001565;28;19918;-72
2022/06/22 06:16:16;;;;;;;;;;;14.40;99.90;;;;;;5003419;28;19921;-72
2022/06/22 06:18:44;;;;;;;;;;;14.50;99.90;;;;;;5003498;28;19924;-72
2022/06/22 06:21:12;;;;;;;;;;;14.60;99.90;;;;;;5003635;28;20378;-72
2022/06/22 06:23:37;;;;;;;;;;;14.70;99.90;;;;;;4983219;28;19964;-72
2022/06/22 06:28:56;;;;;;;;;;;15.00;99.90;;;;;;5000662;28;19953;-72
2022/06/22 06:31:25;;;;;;;;;;;15.10;99.90;;;;;;5007575;28;20287;-70
2022/06/22 06:33:52;;;;;;;;;;;15.20;99.90;;;;;;5009480;28;20387;-72
2022/06/22 06:36:21;;;;;;;;;;;15.30;99.90;;;;;;5007302;28;19925;-72
2022/06/22 06:38:55;;;;;;;;;;;15.40;99.90;;;;;;4990023;28;19971;-72
2022/06/22 06:41:44;;;;;;;;;;;15.60;99.90;;;;;;5005183;28;19917;-73
2022/06/22 06:44:16;;;;;;;;;;;15.60;99.90;;;;;;5020481;28;19923;-73
2022/06/22 06:46:45;;;;;;;;;;;15.80;99.90;;;;;;5003753;28;19924;-72
2022/06/22 06:49:19;;;;;;;;;;;16.00;99.90;;;;;;5008606;28;19922;-73
2022/06/22 06:51:52;;;;;;;;;;;16.10;99.90;;;;;;5012229;28;19923;-73
2022/06/22 06:54:23;;;;;;;;;;;16.30;99.90;;;;;;5005375;28;19917;-72
2022/06/22 06:56:54;;;;;;;;;;;16.40;99.90;;;;;;4987684;28;19925;-73
2022/06/22 06:59:22;;;;;;;;;;;16.50;99.90;;;;;;4990539;28;19921;-73
2022/06/22 07:01:49;;;;;;;;;;;16.60;99.90;;;;;;5003535;28;20000;-73
2022/06/22 07:04:17;;;;;;;;;;;16.70;99.90;;;;;;5006137;28;20462;-73
2022/06/22 07:06:43;;;;;;;;;;;16.90;99.90;;;;;;5004024;28;19999;-73
2022/06/22 07:09:30;;;;;;;;;;;17.00;99.90;;;;;;5006292;28;19929;-72
2022/06/22 07:11:58;;;;;;;;;;;17.10;99.90;;;;;;5010251;28;19917;-73
2022/06/22 07:14:29;;;;;;;;;;;17.20;99.90;;;;;;5009689;28;19928;-73
2022/06/22 07:17:00;;;;;;;;;;;17.40;99.90;;;;;;5011020;28;19917;-73
2022/06/22 07:19:27;;;;;;;;;;;17.50;99.90;;;;;;5022539;28;19921;-73
2022/06/22 07:21:59;;;;;;;;;;;17.60;99.90;;;;;;5010984;28;19925;-73
2022/06/22 07:24:29;;;;;;;;;;;17.70;99.90;;;;;;5007923;28;19918;-73
2022/06/22 07:27:08;;;;;;;;;;;17.80;99.90;;;;;;5011914;28;19924;-73
2022/06/22 07:29:34;;;;;;;;;;;18.00;99.90;;;;;;4991530;28;19974;-73
2022/06/22 07:32:10;;;;;;;;;;;18.10;99.90;;;;;;5010527;28;19965;-73
2022/06/22 07:34:43;;;;;;;;;;;18.20;99.90;;;;;;5009051;28;20450;-73
2022/06/22 07:37:16;;;;;;;;;;;18.30;99.90;;;;;;5013005;28;20478;-73
2022/06/22 07:39:46;;;;;;;;;;;18.50;99.90;;;;;;5013913;28;19929;-73
2022/06/22 07:42:12;;;;;;;;;;;18.60;99.90;;;;;;5009856;28;19921;-73
2022/06/22 07:44:37;;;;;;;;;;;18.70;99.90;;;;;;5013575;28;19921;-73
2022/06/22 07:47:24;;;;;;;;;;;18.80;99.90;;;;;;5013428;28;19917;-73
2022/06/22 07:49:53;;;;;;;;;;;18.90;99.90;;;;;;5009972;28;19983;-73
2022/06/22 07:52:22;;;;;;;;;;;19.10;99.90;;;;;;5010124;28;19932;-73
2022/06/22 07:54:50;;;;;;;;;;;19.20;99.90;;;;;;5013282;28;20184;-73
2022/06/22 07:57:42;;;;;;;;;;;19.30;99.90;;;;;;5010291;28;19979;-73
2022/06/22 08:00:12;;;;;;;;;;;19.40;99.90;;;;;;4986612;28;19961;-71
2022/06/22 08:02:51;;;;;;;;;;;19.50;99.90;;;;;;5007428;28;19936;-73
2022/06/22 08:05:19;;;;;;;;;;;19.70;99.90;;;;;;5011543;28;19924;-73
2022/06/22 08:07:50;;;;;;;;;;;19.80;99.90;;;;;;5009383;28;19925;-73
2022/06/22 08:10:32;;;;;;;;;;;19.90;99.90;;;;;;5010604;28;19973;-73
2022/06/22 08:13:16;;;;;;;;;;;20.00;99.90;;;;;;5013329;28;19979;-73
2022/06/22 08:15:49;;;;;;;;;;;20.20;99.50;;;;;;5010723;28;20011;-73
2022/06/22 08:18:15;;;;;;;;;;;20.30;97.40;;;;;;5011798;28;19917;-73
2022/06/22 08:20:42;;;;;;;;;;;20.40;98.10;;;;;;4995031;28;19921;-73
2022/06/22 08:23:12;;;;;;;;;;;20.60;95.80;;;;;;5011687;28;19925;-73
2022/06/22 08:25:38;;;;;;;;;;;20.60;95.80;;;;;;5014241;28;19929;-73
2022/06/22 08:28:04;;;;;;;;;;;20.70;92.30;;;;;;5012547;28;20032;-73
2022/06/22 08:30:30;;;;;;;;;;;20.90;90.70;;;;;;5012562;28;19925;-72
2022/06/22 08:33:04;;;;;;;;;;;21.00;87.50;;;;;;5010842;28;20272;-73
2022/06/22 08:35:34;;;;;;;;;;;21.10;87.40;;;;;;5011631;28;20734;-73
2022/06/22 08:38:02;;;;;;;;;;;21.20;88.60;;;;;;5012468;28;19924;-73
2022/06/22 08:40:35;;;;;;;;;;;21.30;87.50;;;;;;5011951;28;19929;-73
2022/06/22 08:43:01;;;;;;;;;;;21.50;88.30;;;;;;5024718;28;19921;-73
2022/06/22 08:45:29;;;;;;;;;;;21.60;83.60;;;;;;5008789;28;19921;-74
2022/06/22 08:48:01;;;;;;;;;;;21.70;84.70;;;;;;5012855;28;19917;-73
2022/06/22 08:50:27;;;;;;;;;;;21.70;85.20;;;;;;5012083;28;19922;-73
2022/06/22 08:53:34;;;;;;;;;;;21.90;86.10;;;;;;5010549;28;20128;-72
2022/06/22 08:56:00;;;;;;;;;;;21.90;78.90;;;;;;4921229;29;19918;-73
2022/06/22 08:58:38;;;;;;;;;;;22.10;83.90;;;;;;4935504;29;19977;-73
2022/06/22 09:01:10;;;;;;;;;;;22.10;82.40;;;;;;4976403;28;19928;-74
2022/06/22 09:03:47;;;;;;;;;;;22.20;81.40;;;;;;5010904;28;20399;-75
2022/06/22 09:06:31;;;;;;;;;;;22.30;72.50;;;;;;5010318;28;20374;-74
2022/06/22 09:09:12;;;;;;;;;;;22.50;78.20;;;;;;5010459;28;20410;-74
2022/06/22 09:11:49;;;;;;;;;;;22.60;78.30;;;;;;5011050;28;19928;-74
2022/06/22 09:14:33;;;;;;;;;;;22.80;78.60;;;;;;5010742;28;20011;-74
2022/06/22 09:17:02;;;;;;;;;;;22.90;75.80;;;;;;5010023;28;20396;-74
2022/06/22 09:19:27;;;;;;;;;;;23.00;74.40;;;;;;5011367;28;19921;-74
2022/06/22 09:22:05;;;;;;;;;;;23.10;76.30;;;;;;5006720;28;20011;-74
2022/06/22 09:24:38;;;;;;;;;;;23.20;77.70;;;;;;5026136;28;20379;-74
2022/06/22 09:27:25;;;;;;;;;;;23.30;76.30;;;;;;5009631;28;19948;-75
2022/06/22 09:30:09;;;;;;;;;;;23.50;75.90;;;;;;5005420;28;20379;-75
2022/06/22 09:32:35;;;;;;;;;;;23.60;69.90;;;;;;5000597;28;19917;-75
2022/06/22 09:35:00;;;;;;;;;;;23.70;70.10;;;;;;5011367;28;19968;-75
2022/06/22 09:37:34;;;;;;;;;;;23.80;67.10;;;;;;5011520;28;19917;-75
2022/06/22 09:40:15;;;;;;;;;;;23.90;67.60;;;;;;5009731;28;19968;-75
2022/06/22 09:42:44;;;;;;;;;;;24.00;66.60;;;;;;5010861;28;19924;-75
2022/06/22 09:45:28;;;;;;;;;;;24.10;65.70;;;;;;5011603;28;19917;-75
2022/06/22 09:48:02;;;;;;;;;;;24.30;62.30;;;;;;5006895;28;19918;-75
2022/06/22 09:50:51;;;;;;;;;;;24.30;59.30;;;;;;5011857;28;19928;-75
2022/06/22 09:53:16;;;;;;;;;;;24.40;56.90;;;;;;5009118;28;19917;-75
2022/06/22 09:59:08;;;;;;;;;;;24.50;59.70;;;;;;5011558;28;19921;-74
2022/06/22 10:01:49;;;;;;;;;;;24.70;56.50;;;;;;5027529;28;19925;-74
2022/06/22 10:04:33;;;;;;;;;;;24.70;53.20;;;;;;5008636;28;19996;-74
2022/06/22 10:07:11;;;;;;;;;;;24.80;53.10;;;;;;5008566;28;19917;-74
2022/06/22 10:09:37;;;;;;;;;;;24.90;56.70;;;;;;5010526;28;19936;-74
2022/06/22 10:12:12;;;;;;;;;;;25.10;56.40;;;;;;5010978;28;19921;-74
2022/06/22 10:14:56;;;;;;;;;;;25.20;56.00;;;;;;5010702;28;19983;-73
2022/06/22 10:17:40;;;;;;;;;;;25.30;57.10;;;;;;5010699;28;19917;-74
2022/06/22 10:20:18;;;;;;;;;;;25.40;55.70;;;;;;5006958;28;19924;-74
2022/06/22 10:22:46;;;;;;;;;;;25.40;57.90;;;;;;5006725;28;20372;-74
2022/06/22 10:25:12;;;;;;;;;;;25.50;57.20;;;;;;5003488;28;19917;-74
2022/06/22 10:27:56;;;;;;;;;;;25.60;56.10;;;;;;5009013;28;19924;-74
2022/06/22 10:30:40;;;;;;;;;;;25.80;58.50;;;;;;4998456;28;20029;-75
2022/06/22 10:33:12;;;;;;;;;;;25.90;57.00;;;;;;5003650;28;20423;-75
2022/06/22 10:35:46;;;;;;;;;;;26.10;55.40;;;;;;4990754;28;20315;-75
2022/06/22 10:38:27;;;;;;;;;;;26.30;57.90;;;;;;5004226;28;19925;-75
2022/06/22 10:47:17;;;;;;;;;;;26.70;51.40;;;;;;5008673;28;20282;-74
2022/06/22 10:49:51;;;;;;;;;;;26.80;53.30;;;;;;5001771;28;20359;-71
2022/06/22 10:52:17;;;;;;;;;;;26.90;53.60;;;;;;5014775;28;20327;-75
2022/06/22 10:55:02;;;;;;;;;;;27.00;50.50;;;;;;5008288;28;19918;-75
2022/06/22 10:57:35;;;;;;;;;;;26.90;52.20;;;;;;5010667;28;20334;-75
2022/06/22 11:00:04;;;;;;;;;;;27.10;53.20;;;;;;5008096;28;20384;-75
2022/06/22 11:02:48;;;;;;;;;;;27.30;52.60;;;;;;4992479;28;19925;-75
2022/06/22 11:05:35;;;;;;;;;;;27.50;52.70;;;;;;5006948;28;19941;-75
2022/06/22 11:08:19;;;;;;;;;;;27.50;48.90;;;;;;5022114;28;20299;-75
2022/06/22 11:10:57;;;;;;;;;;;27.60;51.70;;;;;;5008929;28;20356;-71
2022/06/22 11:13:25;;;;;;;;;;;27.70;48.80;;;;;;5004531;28;19932;-75
2022/06/22 11:16:06;;;;;;;;;;;27.70;50.90;;;;;;5005974;28;20368;-75
2022/06/22 11:18:43;;;;;;;;;;;27.80;49.70;;;;;;4999703;28;20407;-76
2022/06/22 11:21:27;;;;;;;;;;;27.90;47.80;;;;;;5003394;28;19960;-74
2022/06/22 11:24:03;;;;;;;;;;;28.00;47.10;;;;;;5004242;28;19925;-75
2022/06/22 11:32:24;;;;;;;;;;;27.90;48.40;;;;;;5015094;28;19925;-74
2022/06/22 11:35:22;;;;;;;;;;;28.00;44.80;;;;;;4988463;28;19918;-73
2022/06/22 11:37:50;;;;;;;;;;;27.80;45.80;;;;;;4977559;28;19921;-74
2022/06/22 11:40:38;;;;;;;;;;;27.90;47.60;;;;;;4998906;28;20364;-74
2022/06/22 11:43:22;;;;;;;;;;;28.10;45.40;;;;;;4998813;28;19968;-74
2022/06/22 11:45:59;;;;;;;;;;;28.30;44.50;;;;;;5003948;28;19921;-74
2022/06/22 11:48:54;;;;;;;;;;;28.30;45.50;;;;;;4999881;28;19917;-74
2022/06/22 11:51:31;;;;;;;;;;;28.30;41.50;;;;;;5001531;28;19929;-75
2022/06/22 11:53:57;;;;;;;;;;;28.40;44.00;;;;;;5001199;28;20358;-75
2022/06/22 11:56:34;;;;;;;;;;;28.30;44.80;;;;;;5005567;28;19960;-75
2022/06/22 11:59:21;;;;;;;;;;;28.50;43.90;;;;;;5007172;28;19964;-75
2022/06/22 12:02:06;;;;;;;;;;;28.60;42.40;;;;;;5006177;28;20271;-75
2022/06/22 12:04:50;;;;;;;;;;;28.70;41.10;;;;;;5004791;28;19921;-74
2022/06/22 12:07:54;;;;;;;;;;;28.70;41.30;;;;;;5005123;28;20377;-74
2022/06/22 12:10:20;;;;;;;;;;;28.80;43.70;;;;;;4949545;28;19966;-74
2022/06/22 12:12:46;;;;;;;;;;;28.70;40.80;;;;;;4956852;28;20368;-74
2022/06/22 12:15:16;;;;;;;;;;;28.90;41.70;;;;;;4979701;28;19923;-73
2022/06/22 12:17:58;;;;;;;;;;;28.90;42.60;;;;;;5006149;28;19940;-74
2022/06/22 12:20:26;;;;;;;;;;;29.00;43.80;;;;;;5006685;28;20287;-73
2022/06/22 12:22:57;;;;;;;;;;;29.10;42.90;;;;;;5009055;28;20364;-74
2022/06/22 12:25:41;;;;;;;;;;;29.20;42.00;;;;;;5008614;28;22283;-75
2022/06/22 12:28:16;;;;;;;;;;;29.10;41.30;;;;;;5025321;28;20410;-74
2022/06/22 12:31:08;;;;;;;;;;;29.20;40.60;;;;;;4986320;28;19921;-74
2022/06/22 12:33:39;;;;;;;;;;;29.30;42.50;;;;;;5007081;28;19921;-74
2022/06/22 12:36:14;;;;;;;;;;;29.40;43.60;;;;;;5006561;28;19937;-74
2022/06/22 12:38:42;;;;;;;;;;;29.50;43.20;;;;;;5005596;28;20432;-75
2022/06/22 12:41:07;;;;;;;;;;;29.50;42.10;;;;;;5005542;28;19928;-74
2022/06/22 12:43:42;;;;;;;;;;;29.50;41.80;;;;;;5006949;28;19921;-74
2022/06/22 12:46:28;;;;;;;;;;;29.50;41.30;;;;;;5002031;28;19921;-74
2022/06/22 12:48:54;;;;;;;;;;;29.40;40.10;;;;;;4968154;28;19918;-74
2022/06/22 12:51:33;;;;;;;;;;;29.40;43.10;;;;;;5005403;28;19926;-74
2022/06/22 12:53:58;;;;;;;;;;;29.50;43.80;;;;;;5004224;28;19926;-74
2022/06/22 12:56:24;;;;;;;;;;;29.50;40.60;;;;;;5003445;28;19917;-74
2022/06/22 12:58:54;;;;;;;;;;;29.70;43.40;;;;;;5002921;28;19918;-75
2022/06/22 13:01:20;;;;;;;;;;;29.60;41.00;;;;;;5004362;28;19949;-75
2022/06/22 13:03:58;;;;;;;;;;;29.50;41.10;;;;;;5005621;28;20661;-75
2022/06/22 13:06:24;;;;;;;;;;;29.60;41.80;;;;;;5005580;28;19927;-74
2022/06/22 13:08:51;;;;;;;;;;;29.70;43.00;;;;;;5003972;28;19929;-74
2022/06/22 13:11:18;;;;;;;;;;;29.90;42.20;;;;;;5002813;28;19930;-74
2022/06/22 13:14:02;;;;;;;;;;;29.90;42.50;;;;;;5000109;28;20584;-74
2022/06/22 13:16:40;;;;;;;;;;;30.00;43.70;;;;;;5000544;28;19917;-74
2022/06/22 13:19:06;;;;;;;;;;;30.00;42.00;;;;;;5008210;28;19925;-74
2022/06/22 13:21:49;;;;;;;;;;;30.10;41.70;;;;;;5006451;28;20391;-74
2022/06/22 13:24:15;;;;;;;;;;;30.20;40.20;;;;;;5007121;28;21454;-74
2022/06/22 13:26:46;;;;;;;;;;;30.30;39.00;;;;;;5003991;28;19921;-74
2022/06/22 13:29:31;;;;;;;;;;;30.30;38.30;;;;;;5017690;28;19937;-74
2022/06/22 13:31:59;;;;;;;;;;;30.30;39.40;;;;;;5019504;28;19917;-74
2022/06/22 13:34:27;;;;;;;;;;;30.40;39.90;;;;;;5004692;28;19936;-74
2022/06/22 13:37:11;;;;;;;;;;;30.50;37.30;;;;;;5002780;28;19917;-74
2022/06/22 13:39:55;;;;;;;;;;;30.60;39.60;;;;;;5005900;28;20764;-74
2022/06/22 13:42:24;;;;;;;;;;;30.60;40.40;;;;;;5000921;28;19917;-75
2022/06/22 13:44:58;;;;;;;;;;;30.70;41.00;;;;;;5008961;28;19917;-74
2022/06/22 13:47:44;;;;;;;;;;;30.70;40.30;;;;;;5027724;28;20010;-74
2022/06/22 13:50:31;;;;;;;;;;;30.70;41.20;;;;;;5005501;28;21405;-74
2022/06/22 13:53:12;;;;;;;;;;;30.80;40.50;;;;;;5001564;28;19934;-75
2022/06/22 13:56:05;;;;;;;;;;;31.00;39.50;;;;;;4986566;28;19926;-74
2022/06/22 13:58:44;;;;;;;;;;;31.00;38.10;;;;;;4999908;28;19924;-74
2022/06/22 14:01:10;;;;;;;;;;;31.00;39.00;;;;;;4980675;28;19925;-74
2022/06/22 14:03:38;;;;;;;;;;;31.10;39.30;;;;;;5004541;28;20379;-74
2022/06/22 14:06:23;;;;;;;;;;;31.00;38.90;;;;;;4984006;28;19922;-74
2022/06/22 14:08:52;;;;;;;;;;;31.00;37.40;;;;;;4999678;28;19925;-74
2022/06/22 14:11:36;;;;;;;;;;;31.10;38.50;;;;;;4999500;28;19930;-74
2022/06/22 14:14:20;;;;;;;;;;;31.20;40.10;;;;;;4984913;28;19917;-74
2022/06/22 14:16:48;;;;;;;;;;;31.30;39.30;;;;;;5020391;28;19924;-73
2022/06/22 14:19:20;;;;;;;;;;;31.30;40.90;;;;;;5003793;28;21846;-74
2022/06/22 14:21:52;;;;;;;;;;;31.40;40.20;;;;;;4997587;28;19921;-74
2022/06/22 14:24:17;;;;;;;;;;;31.40;39.50;;;;;;5000212;28;20499;-74
2022/06/22 14:27:02;;;;;;;;;;;31.30;39.40;;;;;;4995976;28;19925;-74
2022/06/22 14:29:27;;;;;;;;;;;31.50;40.40;;;;;;5000719;28;19925;-74
2022/06/22 14:31:53;;;;;;;;;;;31.40;40.10;;;;;;5006860;28;19921;-74
2022/06/22 14:34:37;;;;;;;;;;;31.30;40.50;;;;;;5006123;28;19918;-74
2022/06/22 14:37:16;;;;;;;;;;;31.50;40.50;;;;;;5005954;28;20003;-74
2022/06/22 14:39:46;;;;;;;;;;;31.50;40.20;;;;;;5007454;28;19944;-74
2022/06/22 14:42:12;;;;;;;;;;;31.40;40.70;;;;;;5005320;28;19917;-74
2022/06/22 14:44:56;;;;;;;;;;;31.40;40.30;;;;;;5008180;28;19927;-74
2022/06/22 14:47:33;;;;;;;;;;;31.50;41.30;;;;;;5007284;28;19925;-74
2022/06/22 14:49:59;;;;;;;;;;;31.50;40.20;;;;;;5020702;28;19948;-74
2022/06/22 14:52:44;;;;;;;;;;;31.50;41.10;;;;;;5009052;28;20380;-75
2022/06/22 14:55:17;;;;;;;;;;;31.50;40.70;;;;;;4992717;28;20019;-74